createdAt,value
2023-03-29T00:01:36.940Z,101318.56
2023-03-29T00:04:39.475Z,101318.69
2023-03-29T00:07:42.597Z,101317.97
2023-03-29T00:10:49.212Z,101319.91
2023-03-29T00:13:51.387Z,101324.28
2023-03-29T00:16:53.996Z,101329.69
2023-03-29T00:19:56.284Z,101320.12
2023-03-29T00:22:58.886Z,101323.66
2023-03-29T00:26:01.424Z,101328.16
2023-03-29T00:29:03.950Z,101329.94
2023-03-29T00:32:06.361Z,101332.72
2023-03-29T00:35:09.280Z,101330.03
2023-03-29T00:38:11.569Z,101331.00
2023-03-29T00:41:14.655Z,101336.09
2023-03-29T00:44:52.059Z,101336.97
2023-03-29T00:47:57.941Z,101331.81
2023-03-29T00:51:07.527Z,101328.41
2023-03-29T00:54:18.571Z,101337.09
2023-03-29T00:57:24.788Z,101331.03
2023-03-29T01:00:38.071Z,101321.66
2023-03-29T01:03:48.259Z,101322.56
2023-03-29T01:07:03.457Z,101321.69
2023-03-29T01:10:12.025Z,101318.25
2023-03-29T01:13:27.119Z,101313.09
2023-03-29T01:16:33.041Z,101306.19
2023-03-29T01:19:43.529Z,101306.22
2023-03-29T01:23:27.201Z,101300.16
2023-03-29T01:26:51.855Z,101293.41
2023-03-29T01:30:02.069Z,101297.81
2023-03-29T01:33:12.444Z,101297.78
2023-03-29T01:36:21.889Z,101300.56
2023-03-29T01:39:24.795Z,101292.75
2023-03-29T01:42:57.992Z,101281.59
2023-03-29T01:46:08.562Z,101280.69
2023-03-29T01:49:29.600Z,101284.28
2023-03-29T01:52:36.556Z,101291.16
2023-03-29T01:55:43.649Z,101288.56
2023-03-29T01:58:51.909Z,101293.12
2023-03-29T02:01:58.396Z,101289.72
2023-03-29T02:05:02.426Z,101296.53
2023-03-29T02:08:08.070Z,101298.88
2023-03-29T02:11:10.738Z,101305.16
2023-03-29T02:14:13.953Z,101306.09
2023-03-29T02:17:23.083Z,101306.22
2023-03-29T02:20:49.732Z,101307.84
2023-03-29T02:23:55.612Z,101302.63
2023-03-29T02:26:59.627Z,101310.44
2023-03-29T02:30:02.041Z,101309.62
2023-03-29T02:33:19.322Z,101300.09
2023-03-29T02:36:29.370Z,101302.75
2023-03-29T02:39:33.790Z,101307.81
2023-03-29T02:42:37.080Z,101300.12
2023-03-29T02:45:41.121Z,101296.69
2023-03-29T02:48:46.756Z,101296.75
2023-03-29T02:51:53.615Z,101302.81
2023-03-29T02:54:57.161Z,101302.09
2023-03-29T02:58:06.702Z,101310.88
2023-03-29T03:01:10.451Z,101306.56
2023-03-29T03:04:13.426Z,101313.62
2023-03-29T03:07:16.174Z,101311.09
2023-03-29T03:10:19.219Z,101315.44
2023-03-29T03:13:21.472Z,101317.25
2023-03-29T03:16:24.371Z,101322.41
2023-03-29T03:19:26.672Z,101330.19
2023-03-29T03:22:29.126Z,101328.47
2023-03-29T03:25:35.154Z,101329.25
2023-03-29T03:28:38.904Z,101322.34
2023-03-29T03:31:41.883Z,101332.03
2023-03-29T03:34:44.674Z,101331.22
2023-03-29T03:37:47.004Z,101332.16
2023-03-29T03:40:56.285Z,101325.25
2023-03-29T03:43:59.855Z,101326.34
2023-03-29T03:47:04.580Z,101335.97
2023-03-29T03:50:09.259Z,101329.97
2023-03-29T03:53:11.817Z,101331.75
2023-03-29T03:56:20.524Z,101326.56
2023-03-29T03:59:24.686Z,101333.53
2023-03-29T04:02:28.269Z,101333.56
2023-03-29T04:05:31.314Z,101339.63
2023-03-29T04:08:34.320Z,101336.16
2023-03-29T04:11:37.772Z,101338.72
2023-03-29T04:14:40.859Z,101338.66
2023-03-29T04:17:44.147Z,101338.72
2023-03-29T04:20:47.768Z,101342.88
2023-03-29T04:23:51.515Z,101340.28
2023-03-29T04:26:53.822Z,101336.84
2023-03-29T04:29:56.816Z,101333.34
2023-03-29T04:32:59.945Z,101333.13
2023-03-29T04:36:03.612Z,101330.53
2023-03-29T04:39:07.919Z,101327.88
2023-03-29T04:42:12.373Z,101331.31
2023-03-29T04:45:20.488Z,101334.72
2023-03-29T04:48:24.579Z,101347.56
2023-03-29T04:51:27.772Z,101340.53
2023-03-29T04:54:32.097Z,101343.75
2023-03-29T04:57:35.986Z,101346.06
2023-03-29T05:00:39.553Z,101345.78
2023-03-29T05:03:43.294Z,101352.31
2023-03-29T05:06:47.238Z,101357.41
2023-03-29T05:09:49.730Z,101365.87
2023-03-29T05:12:54.381Z,101350.72
2023-03-29T05:15:57.448Z,101354.19
2023-03-29T05:19:01.060Z,101361.28
2023-03-29T05:22:03.442Z,101350.38
2023-03-29T05:25:09.688Z,101349.00
2023-03-29T05:28:13.605Z,101357.78
2023-03-29T05:31:17.244Z,101356.31
2023-03-29T05:34:20.131Z,101347.84
2023-03-29T05:37:26.814Z,101352.75
2023-03-29T05:40:31.595Z,101346.47
2023-03-29T05:43:36.293Z,101343.66
2023-03-29T05:46:38.636Z,101346.34
2023-03-29T05:49:44.250Z,101350.47
2023-03-29T05:52:47.823Z,101352.47
2023-03-29T05:55:51.617Z,101348.44
2023-03-29T05:58:56.094Z,101355.50
2023-03-29T06:02:00.815Z,101358.09
2023-03-29T06:05:05.078Z,101363.31
2023-03-29T06:08:10.462Z,101360.91
2023-03-29T06:11:15.601Z,101361.84
2023-03-29T06:14:23.293Z,101368.25
2023-03-29T06:17:26.349Z,101366.03
2023-03-29T06:20:28.862Z,101366.56
2023-03-29T06:23:32.192Z,101359.16
2023-03-29T06:26:35.268Z,101370.19
2023-03-29T06:29:37.847Z,101370.13
2023-03-29T06:32:42.464Z,101373.06
2023-03-29T06:35:47.827Z,101379.94
2023-03-29T06:38:50.617Z,101377.41
2023-03-29T06:41:53.372Z,101376.50
2023-03-29T06:44:57.232Z,101373.88
2023-03-29T06:47:59.913Z,101382.13
2023-03-29T06:51:02.344Z,101374.69
2023-03-29T06:54:05.456Z,101378.12
2023-03-29T06:57:08.612Z,101378.75
2023-03-29T07:00:28.231Z,101374.25
2023-03-29T07:03:35.341Z,101378.97
2023-03-29T07:06:39.146Z,101384.97
2023-03-29T07:09:41.521Z,101392.47
2023-03-29T07:12:46.726Z,101391.09
2023-03-29T07:15:49.629Z,101395.38
2023-03-29T07:18:53.492Z,101393.22
2023-03-29T07:21:57.055Z,101406.94
2023-03-29T07:25:00.958Z,101403.37
2023-03-29T07:28:05.117Z,101402.09
2023-03-29T07:31:11.281Z,101407.34
2023-03-29T07:34:17.746Z,101416.94
2023-03-29T07:37:20.881Z,101410.25
2023-03-29T07:40:24.459Z,101414.75
2023-03-29T07:43:29.039Z,101423.25
2023-03-29T07:46:31.412Z,101418.50
2023-03-29T07:49:34.561Z,101406.22
2023-03-29T07:52:38.311Z,101415.84
2023-03-29T07:55:47.672Z,101413.88
2023-03-29T07:58:51.692Z,101421.34
2023-03-29T08:01:55.254Z,101427.06
2023-03-29T08:08:33.063Z,101417.16
2023-03-29T08:11:38.741Z,101413.31
2023-03-29T08:14:42.428Z,101417.69
2023-03-29T08:17:45.666Z,101417.41
2023-03-29T08:20:48.588Z,101404.81
2023-03-29T08:23:52.117Z,101405.91
2023-03-29T08:26:56.196Z,101403.22
2023-03-29T08:30:00.696Z,101406.44
2023-03-29T08:33:05.860Z,101407.72
2023-03-29T08:36:08.953Z,101398.09
2023-03-29T08:39:12.306Z,101399.81
2023-03-29T08:42:53.452Z,101402.72
2023-03-29T08:46:14.848Z,101402.66
2023-03-29T08:49:22.448Z,101401.44
2023-03-29T08:52:36.463Z,101395.69
2023-03-29T08:55:46.452Z,101399.81
2023-03-29T08:58:51.887Z,101396.37
2023-03-29T09:01:58.822Z,101391.47
2023-03-29T09:05:26.825Z,101386.59
2023-03-29T09:08:30.203Z,101384.41
2023-03-29T09:12:08.822Z,101380.84
2023-03-29T09:15:34.541Z,101373.06
2023-03-29T09:18:49.613Z,101369.88
2023-03-29T09:22:06.780Z,101367.75
2023-03-29T09:25:26.363Z,101364.09
2023-03-29T09:28:39.281Z,101360.59
2023-03-29T09:31:44.596Z,101357.12
2023-03-29T09:35:19.030Z,101355.19
2023-03-29T09:38:22.875Z,101353.78
2023-03-29T09:41:36.294Z,101349.19
2023-03-29T09:44:56.134Z,101348.78
2023-03-29T09:48:10.160Z,101337.75
2023-03-29T09:51:18.064Z,101339.13
2023-03-29T09:54:32.360Z,101339.53
2023-03-29T09:57:38.527Z,101331.31
2023-03-29T10:01:22.607Z,101323.44
2023-03-29T10:04:30.025Z,101325.56
2023-03-29T10:07:45.060Z,101312.16
2023-03-29T10:10:52.036Z,101308.03
2023-03-29T10:13:57.440Z,101305.84
2023-03-29T10:17:00.350Z,101296.97
2023-03-29T10:20:08.199Z,101286.28
2023-03-29T10:23:18.517Z,101292.34
2023-03-29T10:26:39.388Z,101295.38
2023-03-29T10:29:43.138Z,101285.84
2023-03-29T10:32:46.240Z,101284.44
2023-03-29T10:35:49.602Z,101291.88
2023-03-29T10:38:54.212Z,101280.19
2023-03-29T10:41:59.445Z,101268.09
2023-03-29T10:45:02.132Z,101288.09
2023-03-29T10:48:09.696Z,101271.47
2023-03-29T10:51:14.601Z,101275.75
2023-03-29T10:54:21.880Z,101273.72
2023-03-29T10:57:39.361Z,101263.34
2023-03-29T11:00:58.147Z,101258.06
2023-03-29T11:04:16.643Z,101260.94
2023-03-29T11:07:29.575Z,101257.94
2023-03-29T11:10:55.039Z,101265.13
2023-03-29T11:14:06.574Z,101251.97
2023-03-29T11:17:18.211Z,101259.78
2023-03-29T11:20:59.419Z,101250.53
2023-03-29T11:24:10.795Z,101248.56
2023-03-29T11:27:19.230Z,101250.31
2023-03-29T11:31:02.405Z,101254.47
2023-03-29T11:34:43.661Z,101245.69
2023-03-29T11:37:49.106Z,101239.63
2023-03-29T11:41:03.598Z,101243.06
2023-03-29T11:44:29.623Z,101232.00
2023-03-29T11:47:37.225Z,101222.63
2023-03-29T11:50:47.803Z,101214.41
2023-03-29T11:54:03.255Z,101212.25
2023-03-29T11:57:44.768Z,101220.47
2023-03-29T12:00:55.698Z,101217.84
2023-03-29T12:04:05.006Z,101217.50
2023-03-29T12:07:28.748Z,101212.31
2023-03-29T12:26:46.583Z,101176.81
2023-03-29T12:30:14.440Z,101180.34
2023-03-29T12:33:54.547Z,101174.72
2023-03-29T12:37:17.205Z,101173.94
2023-03-29T12:40:23.232Z,101167.94
2023-03-29T12:43:31.449Z,101168.34
2023-03-29T12:46:35.795Z,101164.53
2023-03-29T12:49:39.436Z,101158.97
2023-03-29T12:52:42.862Z,101153.06
2023-03-29T12:56:09.461Z,101157.44
2023-03-29T12:59:37.558Z,101156.25
2023-03-29T13:02:40.288Z,101156.13
2023-03-29T13:05:44.325Z,101158.09
2023-03-29T13:09:01.537Z,101164.16
2023-03-29T13:12:15.907Z,101150.16
2023-03-29T13:15:18.891Z,101146.03
2023-03-29T13:19:01.704Z,101150.09
2023-03-29T13:22:29.385Z,101129.84
2023-03-29T13:25:31.575Z,101132.75
2023-03-29T13:28:53.068Z,101122.94
2023-03-29T13:32:16.819Z,101124.94
2023-03-29T13:35:27.843Z,101117.28
2023-03-29T13:38:35.712Z,101124.91
2023-03-29T13:41:39.230Z,101112.03
2023-03-29T13:44:46.108Z,101110.88
2023-03-29T13:48:02.682Z,101118.22
2023-03-29T13:51:13.326Z,101109.72
2023-03-29T13:54:24.820Z,101099.41
2023-03-29T13:57:39.625Z,101100.34
2023-03-29T14:00:49.512Z,101088.78
2023-03-29T14:03:53.920Z,101094.84
2023-03-29T14:06:57.681Z,101105.78
2023-03-29T14:10:01.508Z,101093.47
2023-03-29T14:13:27.479Z,101094.69
2023-03-29T14:16:33.102Z,101091.81
2023-03-29T14:19:37.581Z,101096.53
2023-03-29T14:26:52.204Z,101087.63
2023-03-29T14:30:31.932Z,101085.69
2023-03-29T14:37:35.090Z,101084.53
2023-03-29T14:44:12.417Z,101081.84
2023-03-29T14:54:57.806Z,101078.03
2023-03-29T14:58:00.607Z,101077.91
2023-03-29T15:01:24.769Z,101071.56
2023-03-29T15:04:36.038Z,101079.09
2023-03-29T15:07:39.931Z,101071.81
2023-03-29T15:10:45.126Z,101065.62
2023-03-29T15:13:49.207Z,101065.53
2023-03-29T15:16:56.661Z,101068.84
2023-03-29T15:20:12.457Z,101058.84
2023-03-29T15:23:19.926Z,101059.47
2023-03-29T15:26:31.997Z,101055.97
2023-03-29T15:29:42.112Z,101047.06
2023-03-29T15:32:45.355Z,101048.13
2023-03-29T15:35:53.005Z,101053.53
2023-03-29T15:38:55.894Z,101045.69
2023-03-29T15:41:58.812Z,101042.72
2023-03-29T15:45:07.391Z,101034.72
2023-03-29T15:48:15.613Z,101040.66
2023-03-29T15:51:18.928Z,101029.38
2023-03-29T15:54:24.989Z,101032.69
2023-03-29T15:57:29.318Z,101026.00
2023-03-29T16:00:33.183Z,101029.13
2023-03-29T16:03:36.135Z,101020.03
2023-03-29T16:06:38.515Z,101022.78
2023-03-29T16:09:41.438Z,101019.09
2023-03-29T16:12:43.595Z,101017.94
2023-03-29T16:15:48.582Z,101014.53
2023-03-29T16:18:51.375Z,101005.66
2023-03-29T16:21:54.574Z,101014.75
2023-03-29T16:24:57.044Z,101009.06
2023-03-29T16:27:59.668Z,101010.69
2023-03-29T16:31:02.063Z,101010.31
2023-03-29T16:34:06.080Z,101004.25
2023-03-29T16:37:08.445Z,100998.31
2023-03-29T16:40:12.599Z,100997.56
2023-03-29T16:43:18.726Z,100990.81
2023-03-29T16:46:21.494Z,100988.03
2023-03-29T16:49:24.571Z,100991.78
2023-03-29T16:52:27.645Z,101001.94
2023-03-29T16:55:30.214Z,101005.78
2023-03-29T16:58:32.949Z,101000.66
2023-03-29T17:01:36.373Z,101008.59
2023-03-29T17:04:41.287Z,101007.66
2023-03-29T17:07:44.599Z,100999.81
2023-03-29T17:10:54.091Z,101003.31
2023-03-29T17:13:56.479Z,101007.16
2023-03-29T17:16:59.534Z,100999.31
2023-03-29T17:20:02.114Z,100988.72
2023-03-29T17:23:04.729Z,100988.81
2023-03-29T17:26:07.659Z,100999.47
2023-03-29T17:29:10.366Z,101001.59
2023-03-29T17:32:12.661Z,101004.00
2023-03-29T17:35:15.416Z,101009.19
2023-03-29T17:38:17.710Z,101006.47
2023-03-29T17:41:21.515Z,101015.81
2023-03-29T17:44:23.881Z,101023.06
2023-03-29T17:47:26.605Z,101021.59
2023-03-29T17:50:28.992Z,101022.38
2023-03-29T17:53:31.700Z,101027.31
2023-03-29T17:56:34.070Z,101027.63
2023-03-29T17:59:37.849Z,101024.91
2023-03-29T18:02:41.252Z,101028.00
2023-03-29T18:05:43.976Z,101028.84
2023-03-29T18:08:46.989Z,101037.44
2023-03-29T18:11:49.665Z,101037.63
2023-03-29T18:14:52.149Z,101044.84
2023-03-29T18:17:54.776Z,101036.22
2023-03-29T18:20:57.037Z,101043.13
2023-03-29T18:23:59.951Z,101049.34
2023-03-29T18:27:02.355Z,101053.94
2023-03-29T18:30:07.174Z,101056.34
2023-03-29T18:33:11.003Z,101053.00
2023-03-29T18:36:14.694Z,101054.19
2023-03-29T18:39:17.520Z,101051.00
2023-03-29T18:42:21.819Z,101055.50
2023-03-29T18:45:24.189Z,101055.50
2023-03-29T18:48:27.608Z,101059.00
2023-03-29T18:51:31.022Z,101059.41
2023-03-29T18:54:33.421Z,101055.66
2023-03-29T18:57:35.718Z,101052.41
2023-03-29T19:00:39.687Z,101055.84
2023-03-29T19:03:42.106Z,101058.78
2023-03-29T19:06:45.064Z,101062.19
2023-03-29T19:09:47.302Z,101059.72
2023-03-29T19:12:49.953Z,101060.34
2023-03-29T19:15:52.232Z,101066.38
2023-03-29T19:18:56.041Z,101058.62
2023-03-29T19:22:00.536Z,101058.16
2023-03-29T19:25:05.024Z,101064.28
2023-03-29T19:28:07.318Z,101058.94
2023-03-29T19:31:09.899Z,101063.44
2023-03-29T19:34:12.341Z,101066.00
2023-03-29T19:37:16.961Z,101069.72
2023-03-29T19:40:19.998Z,101077.87
2023-03-29T19:43:22.753Z,101069.88
2023-03-29T19:46:25.480Z,101063.75
2023-03-29T19:49:28.061Z,101066.47
2023-03-29T19:52:31.036Z,101064.09
2023-03-29T19:55:33.700Z,101060.09
2023-03-29T19:58:36.163Z,101053.38
2023-03-29T20:01:42.698Z,101054.84
2023-03-29T20:04:46.288Z,101053.81
2023-03-29T20:07:48.697Z,101051.69
2023-03-29T20:10:58.951Z,101051.75
2023-03-29T20:14:01.297Z,101053.53
2023-03-29T20:17:04.491Z,101046.66
2023-03-29T20:20:09.850Z,101049.50
2023-03-29T20:23:12.857Z,101041.69
2023-03-29T20:26:15.453Z,101044.09
2023-03-29T20:29:18.740Z,101042.59
2023-03-29T20:32:21.201Z,101042.59
2023-03-29T20:35:24.311Z,101043.22
2023-03-29T20:38:26.530Z,101042.22
2023-03-29T20:41:29.273Z,101038.13
2023-03-29T20:44:33.556Z,101037.09
2023-03-29T20:47:42.469Z,101028.50
2023-03-29T20:50:48.354Z,101030.44
2023-03-29T20:53:50.845Z,101030.75
2023-03-29T20:56:54.720Z,101033.37
2023-03-29T20:59:57.779Z,101032.59
2023-03-29T21:03:00.492Z,101042.06
2023-03-29T21:06:03.482Z,101035.84
2023-03-29T21:09:06.000Z,101031.38
2023-03-29T21:12:08.523Z,101033.31
2023-03-29T21:15:13.575Z,101026.63
2023-03-29T21:18:16.221Z,101029.25
2023-03-29T21:21:18.458Z,101024.91
2023-03-29T21:24:21.695Z,101034.84
2023-03-29T21:27:23.925Z,101027.63
2023-03-29T21:30:26.459Z,101026.84
2023-03-29T21:33:28.761Z,101022.66
2023-03-29T21:36:31.389Z,101017.47
2023-03-29T21:39:33.600Z,101016.16
2023-03-29T21:42:36.641Z,101015.00
2023-03-29T21:45:56.333Z,101010.09
2023-03-29T21:48:58.877Z,101017.25
2023-03-29T21:52:01.471Z,101011.34
2023-03-29T21:55:06.011Z,101009.50
2023-03-29T21:58:08.227Z,101016.37
2023-03-29T22:01:11.090Z,101004.91
2023-03-29T22:04:19.984Z,101009.94
2023-03-29T22:07:28.170Z,101016.56
2023-03-29T22:10:32.966Z,101009.66
2023-03-29T22:13:35.456Z,101017.63
2023-03-29T22:16:38.417Z,101015.22
2023-03-29T22:19:41.796Z,101017.72
2023-03-29T22:22:45.749Z,101010.72
2023-03-29T22:25:47.971Z,101021.97
2023-03-29T22:28:51.705Z,101016.94
2023-03-29T22:31:54.279Z,101007.53
2023-03-29T22:34:57.059Z,101011.34
2023-03-29T22:37:59.378Z,101005.94
2023-03-29T22:41:02.071Z,101018.00
2023-03-29T22:44:05.010Z,101029.91
2023-03-29T22:47:07.642Z,101035.91
2023-03-29T22:50:10.817Z,101027.28
2023-03-29T22:53:14.166Z,101031.09
2023-03-29T22:56:17.247Z,101033.87
2023-03-29T22:59:20.436Z,101023.72
2023-03-29T23:02:22.711Z,101014.62
2023-03-29T23:05:25.480Z,101028.34
2023-03-29T23:08:29.706Z,101022.38
2023-03-29T23:11:32.396Z,101024.66
2023-03-29T23:14:37.750Z,101027.50
2023-03-29T23:17:40.233Z,101021.91
2023-03-29T23:20:42.740Z,101024.47
2023-03-29T23:23:45.471Z,101025.31
2023-03-29T23:26:48.954Z,101016.56
2023-03-29T23:29:51.860Z,101020.13
2023-03-29T23:32:54.112Z,101025.03
2023-03-29T23:35:56.935Z,101019.59
2023-03-29T23:38:59.645Z,101017.81
2023-03-29T23:42:03.508Z,101020.59
2023-03-29T23:45:12.726Z,101019.78
2023-03-29T23:48:15.326Z,101017.13
2023-03-29T23:51:22.901Z,101020.25
2023-03-29T23:54:25.995Z,101006.72
2023-03-29T23:57:28.765Z,101015.31
